Time;durP1;ratioP1;P1;durP2;ratioP2;P2;SDS_P1;SDS_P2;PMS_P1;PMS_P2;Temp;Humidity;BMP_temperature;BMP_pressure;BME280_temperature;BME280_humidity;BME280_pressure;Samples;Min_cycle;Max_cycle;Signal;HPM_P1;HPM_P2
2022/01/24 00:00:18;;;;;;;116.10;74.00;;;12.60;76.50;;;;;;5188191;28;20088;-34
2022/01/24 00:03:09;;;;;;;176.30;108.90;;;12.60;76.70;;;;;;5188142;28;20480;-29
2022/01/24 00:05:41;;;;;;;140.07;89.37;;;12.60;76.70;;;;;;5187459;28;20149;-37
2022/01/24 00:08:12;;;;;;;124.37;79.67;;;12.60;76.80;;;;;;5187984;28;20078;-33
2022/01/24 00:10:45;;;;;;;110.43;69.20;;;12.70;77.10;;;;;;5187889;28;20381;-37
2022/01/24 00:16:01;;;;;;;137.43;86.70;;;12.70;77.10;;;;;;5187838;28;20073;-28
2022/01/24 00:26:41;;;;;;;138.10;87.93;;;12.70;77.10;;;;;;5187843;28;20049;-34
2022/01/24 00:27:05;;;;;;;111.27;71.43;;;12.70;77.00;;;;;;5164942;28;20057;-33
2022/01/24 00:29:36;;;;;;;101.07;65.30;;;12.60;76.90;;;;;;5165153;28;20050;-36
2022/01/24 00:32:07;;;;;;;101.20;63.13;;;12.60;76.80;;;;;;5164815;28;20512;-33
2022/01/24 00:34:38;;;;;;;102.00;64.50;;;12.70;76.80;;;;;;5164769;28;20448;-32
2022/01/24 00:37:09;;;;;;;102.63;62.83;;;12.60;76.50;;;;;;5164710;28;20500;-38
2022/01/24 00:39:40;;;;;;;88.43;57.93;;;12.60;76.60;;;;;;5148475;28;20050;-31
2022/01/24 00:47:23;;;;;;;96.77;59.70;;;12.60;76.20;;;;;;5164495;28;20078;-30
2022/01/24 00:53:01;;;;;;;91.93;57.30;;;12.60;76.00;;;;;;5163967;28;20423;-33
2022/01/24 00:55:31;;;;;;;101.53;63.80;;;12.60;75.70;;;;;;5186010;28;20496;-32
2022/01/24 00:58:02;;;;;;;105.60;65.03;;;12.60;75.60;;;;;;5186930;28;20078;-35
2022/01/24 01:00:33;;;;;;;123.47;76.63;;;12.60;75.40;;;;;;5187088;28;20081;-36
2022/01/24 01:03:04;;;;;;;136.80;85.00;;;12.60;75.40;;;;;;5186970;28;20073;-35
2022/01/24 01:06:03;;;;;;;139.80;87.03;;;12.60;75.40;;;;;;5186666;28;20045;-33
2022/01/24 01:19:59;;;;;;;;;;;12.60;75.40;;;;;;5205577;28;19967;-35
2022/01/24 01:22:30;;;;;;;;;;;12.60;76.00;;;;;;5205456;28;19921;-32
2022/01/24 01:25:01;;;;;;;;;;;12.60;76.20;;;;;;5205301;28;19921;-32
2022/01/24 01:27:38;;;;;;;;;;;12.60;76.20;;;;;;5205602;28;20263;-30
2022/01/24 01:30:18;;;;;;;;;;;12.60;76.00;;;;;;5205424;28;20067;-39
2022/01/24 01:33:06;;;;;;;;;;;12.60;75.90;;;;;;5205393;28;19921;-27
2022/01/24 01:35:50;;;;;;;;;;;12.60;76.00;;;;;;5205568;28;19948;-35
2022/01/24 01:52:37;;;;;;;;;;;12.60;75.80;;;;;;5205102;28;19964;-28
2022/01/24 01:57:39;;;;;;;;;;;12.60;75.80;;;;;;5190551;28;19957;-31
2022/01/24 02:00:10;;;;;;;;;;;12.60;75.80;;;;;;5188573;28;19957;-36
2022/01/24 02:02:42;;;;;;;;;;;12.60;75.80;;;;;;5190457;28;19928;-38
2022/01/24 02:05:12;;;;;;;;;;;12.70;76.00;;;;;;5190659;28;20303;-33
2022/01/24 02:07:47;;;;;;;;;;;12.60;76.00;;;;;;5190415;28;20020;-31
2022/01/24 02:10:18;;;;;;;;;;;12.60;76.00;;;;;;5190533;28;19948;-35
2022/01/24 02:12:51;;;;;;;;;;;12.60;76.10;;;;;;5190540;28;19922;-33
2022/01/24 02:15:35;;;;;;;;;;;12.60;76.30;;;;;;5190480;28;20363;-35
2022/01/24 02:25:55;;;;;;;;;;;12.60;76.50;;;;;;5190344;28;19933;-35
2022/01/24 02:28:30;;;;;;;;;;;12.60;76.60;;;;;;5190663;28;20360;-30
2022/01/24 02:31:25;;;;;;;;;;;12.70;76.70;;;;;;5190220;28;20006;-31
2022/01/24 02:33:56;;;;;;;;;;;12.60;76.70;;;;;;5190604;28;19921;-29
2022/01/24 02:36:26;;;;;;;;;;;12.60;76.90;;;;;;5189239;28;19921;-33
2022/01/24 02:50:00;;;;;;;;;;;12.70;78.00;;;;;;5189784;28;19967;-35
2022/01/24 02:52:30;;;;;;;;;;;12.70;78.00;;;;;;5189838;28;20307;-30
2022/01/24 02:55:02;;;;;;;;;;;12.70;78.00;;;;;;5190469;28;20268;-36
2022/01/24 02:57:33;;;;;;;;;;;12.70;78.10;;;;;;5188548;28;20311;-37
2022/01/24 03:00:04;;;;;;;;;;;12.70;78.10;;;;;;5189673;28;19927;-27
2022/01/24 03:02:35;;;;;;;;;;;12.70;78.30;;;;;;5189479;28;19921;-30
2022/01/24 03:05:06;;;;;;;;;;;12.70;78.40;;;;;;5189646;28;19968;-29
2022/01/24 03:07:37;;;;;;;;;;;12.70;78.50;;;;;;5189540;28;19957;-28
2022/01/24 03:10:13;;;;;;;;;;;12.70;78.60;;;;;;5189096;28;19948;-29
2022/01/24 03:12:47;;;;;;;;;;;12.70;78.70;;;;;;5188993;28;19972;-28
2022/01/24 03:15:18;;;;;;;;;;;12.70;78.70;;;;;;5188951;28;19956;-28
2022/01/24 03:17:49;;;;;;;;;;;12.70;78.70;;;;;;5189143;28;20339;-29
2022/01/24 03:20:20;;;;;;;;;;;12.70;78.70;;;;;;5188678;28;19984;-29
2022/01/24 03:22:51;;;;;;;;;;;12.70;78.80;;;;;;5189156;28;20032;-29
2022/01/24 03:25:22;;;;;;;;;;;12.70;78.80;;;;;;5188453;28;20299;-32
2022/01/24 03:27:53;;;;;;;;;;;12.70;78.80;;;;;;5188614;28;19921;-30
2022/01/24 03:30:24;;;;;;;;;;;12.70;78.80;;;;;;5188042;28;19929;-31
2022/01/24 03:32:56;;;;;;;;;;;12.70;78.80;;;;;;5188343;28;20419;-28
2022/01/24 03:35:27;;;;;;;;;;;12.70;78.80;;;;;;5186941;28;20000;-30
2022/01/24 03:37:58;;;;;;;91.00;62.00;;;12.70;78.80;;;;;;5185638;28;20335;-29
2022/01/24 03:40:29;;;;;;;95.33;64.40;;;12.70;78.80;;;;;;5187995;28;19949;-27
2022/01/24 03:43:00;;;;;;;97.43;65.43;;;12.70;78.90;;;;;;5188571;28;20077;-32
2022/01/24 03:45:46;;;;;;;91.73;62.07;;;12.70;78.80;;;;;;5188027;28;20489;-30
2022/01/24 03:48:38;;;;;;;76.23;53.13;;;12.70;78.80;;;;;;5187903;28;20049;-29
2022/01/24 03:51:10;;;;;;;87.63;56.93;;;12.70;78.90;;;;;;5188184;28;20399;-29
2022/01/24 03:53:42;;;;;;;78.30;52.67;;;12.70;79.00;;;;;;5188107;28;20443;-30
2022/01/24 03:56:13;;;;;;;79.03;53.17;;;12.70;79.10;;;;;;5187953;28;20487;-27
2022/01/24 03:58:44;;;;;;;75.67;53.90;;;12.70;79.10;;;;;;5170575;28;20050;-29
2022/01/24 04:01:15;;;;;;;78.50;54.63;;;12.70;79.20;;;;;;5186785;28;20077;-30
2022/01/24 04:03:46;;;;;;;80.93;52.50;;;12.70;79.10;;;;;;5187487;28;20074;-30
2022/01/24 04:06:17;;;;;;;75.05;51.65;;;12.70;79.10;;;;;;5186484;28;20081;-35
2022/01/24 04:08:48;;;;;;;74.10;51.60;;;12.70;79.20;;;;;;5187712;28;20133;-31
2022/01/24 04:11:19;;;;;;;73.20;49.80;;;12.80;79.20;;;;;;5187674;28;20069;-33
2022/01/24 04:13:57;;;;;;;77.13;52.13;;;12.80;79.20;;;;;;5188338;28;20077;-32
2022/01/24 04:16:31;;;;;;;76.20;52.80;;;12.70;79.10;;;;;;5187426;28;20062;-30
2022/01/24 04:19:29;;;;;;;76.77;53.23;;;12.70;79.20;;;;;;5187819;28;20050;-28
2022/01/24 04:21:55;;;;;;;70.95;50.15;;;12.80;79.30;;;;;;5187497;28;20050;-28
2022/01/24 04:24:26;;;;;;;74.77;50.13;;;12.80;79.20;;;;;;5186704;28;20132;-29
2022/01/24 04:26:57;;;;;;;70.37;48.80;;;12.70;79.40;;;;;;5187603;28;20045;-28
2022/01/24 04:29:28;;;;;;;74.07;51.17;;;12.80;80.00;;;;;;5186370;28;20129;-30
2022/01/24 04:32:00;;;;;;;68.60;49.50;;;12.70;79.70;;;;;;5187109;28;20095;-27
2022/01/24 04:34:30;;;;;;;70.80;50.90;;;12.70;80.00;;;;;;5187103;28;20519;-35
2022/01/24 04:37:02;;;;;;;70.33;50.13;;;12.70;80.10;;;;;;5194925;28;20046;-33
2022/01/24 04:39:33;;;;;;;72.17;50.43;;;12.80;80.10;;;;;;5207706;28;20041;-38
2022/01/24 04:42:10;;;;;;;72.47;49.83;;;12.80;79.70;;;;;;5205499;28;20041;-33
2022/01/24 04:50:59;;;;;;;74.20;53.30;;;12.70;80.00;;;;;;5207718;28;20450;-30
2022/01/24 04:56:01;;;;;;;79.00;55.50;;;9.80;86.30;;;;;;5218739;28;19928;-31
2022/01/24 04:58:32;;;;;;;85.17;58.77;;;9.40;87.70;;;;;;5215611;28;20045;-34
2022/01/24 05:01:03;;;;;;;;;;;9.20;88.60;;;;;;5213048;28;20100;-33
2022/01/24 05:03:34;;;;;;;;;;;9.10;89.20;;;;;;5212081;28;20414;-35
2022/01/24 05:06:05;;;;;;;;;;;9.10;89.40;;;;;;5218000;28;20039;-33
2022/01/24 05:08:36;;;;;;;;;;;9.00;89.40;;;;;;5215926;28;20579;-31
2022/01/24 05:11:11;;;;;;;;;;;9.00;89.50;;;;;;5217394;28;19970;-30
2022/01/24 05:24:44;;;;;;;;;;;8.70;90.30;;;;;;5203988;28;20002;-30
2022/01/24 05:27:15;;;;;;;;;;;8.60;90.40;;;;;;5205155;28;19960;-34
2022/01/24 05:29:46;;;;;;;;;;;8.60;90.50;;;;;;5205222;28;19921;-32
2022/01/24 05:32:17;;;;;;;;;;;8.60;90.60;;;;;;5204048;28;19956;-33
2022/01/24 05:34:48;;;;;;;;;;;8.50;90.50;;;;;;5204653;28;19956;-35
2022/01/24 05:37:18;;;;;;;;;;;8.50;90.70;;;;;;5206646;28;19956;-36
2022/01/24 05:39:49;;;;;;;;;;;8.50;90.70;;;;;;5208179;28;20405;-31
2022/01/24 05:42:21;;;;;;;;;;;8.60;90.60;;;;;;5208835;28;19925;-39
2022/01/24 05:44:52;;;;;;;;;;;8.70;90.60;;;;;;5207098;28;19925;-34
2022/01/24 05:47:23;;;;;;;;;;;8.80;90.50;;;;;;5208759;28;20039;-30
2022/01/24 05:49:54;;;;;;;;;;;8.80;90.60;;;;;;5208761;28;19925;-36
2022/01/24 05:52:28;;;;;;;;;;;8.90;90.30;;;;;;5209285;28;20307;-34
2022/01/24 05:54:59;;;;;;;;;;;9.00;90.30;;;;;;5209040;28;20060;-36
2022/01/24 05:57:30;;;;;;;;;;;9.20;90.20;;;;;;5209144;28;19921;-32
2022/01/24 06:00:01;;;;;;;;;;;9.70;89.50;;;;;;5208841;28;19948;-35
2022/01/24 06:02:31;;;;;;;;;;;10.30;88.00;;;;;;5209159;28;20389;-31
2022/01/24 06:05:03;;;;;;;82.17;55.97;;;10.70;86.90;;;;;;5190724;28;20465;-30
2022/01/24 06:07:34;;;;;;;90.37;57.33;;;11.10;85.80;;;;;;5208170;28;20480;-35
2022/01/24 06:10:05;;;;;;;83.47;57.23;;;11.30;85.00;;;;;;5208106;28;20049;-32
2022/01/24 06:12:36;;;;;;;85.63;57.73;;;11.50;84.40;;;;;;5206908;28;20061;-34
2022/01/24 06:15:08;;;;;;;82.83;56.20;;;11.80;84.50;;;;;;5208311;28;20046;-28
2022/01/24 06:17:39;;;;;;;89.87;60.10;;;11.90;83.60;;;;;;5208077;28;20037;-32
2022/01/24 06:20:10;;;;;;;96.27;63.33;;;12.00;83.30;;;;;;5205958;28;20081;-30
2022/01/24 06:22:41;;;;;;;90.53;59.87;;;12.10;83.00;;;;;;5207644;28;20037;-30
2022/01/24 06:25:13;;;;;;;91.50;61.17;;;12.20;82.70;;;;;;5208009;28;20483;-31
2022/01/24 06:27:44;;;;;;;85.23;58.17;;;12.30;82.50;;;;;;5207863;28;20844;-34
2022/01/24 06:30:15;;;;;;;88.13;62.33;;;12.40;82.30;;;;;;5210089;28;20041;-35
2022/01/24 06:32:46;;;;;;;92.93;60.33;;;12.40;82.20;;;;;;5208675;28;20045;-31
2022/01/24 06:35:18;;;;;;;92.23;64.07;;;12.50;82.00;;;;;;5210269;28;20049;-32
2022/01/24 06:37:49;;;;;;;95.20;65.07;;;12.50;82.00;;;;;;5210532;28;20483;-31
2022/01/24 06:40:20;;;;;;;94.43;64.47;;;12.60;81.90;;;;;;5209673;28;20069;-29
2022/01/24 06:42:50;;;;;;;96.70;64.00;;;12.60;81.80;;;;;;5209687;28;20076;-28
2022/01/24 06:45:22;;;;;;;97.53;63.90;;;12.60;81.80;;;;;;5207872;28;20107;-36
2022/01/24 06:47:52;;;;;;;95.63;67.13;;;12.60;81.70;;;;;;5208707;28;20053;-35
2022/01/24 06:50:29;;;;;;;99.73;67.03;;;12.70;81.80;;;;;;5209672;28;20543;-33
2022/01/24 06:53:00;;;;;;;106.60;70.23;;;12.70;81.80;;;;;;5209548;28;20045;-33
2022/01/24 06:55:32;;;;;;;100.20;67.23;;;12.80;81.80;;;;;;5209487;28;20065;-34
2022/01/24 06:58:03;;;;;;;112.47;72.90;;;12.90;81.70;;;;;;5209288;28;20064;-30
2022/01/24 07:00:37;;;;;;;105.23;69.40;;;12.90;81.60;;;;;;5209519;28;20042;-30
2022/01/24 07:03:08;;;;;;;108.53;68.80;;;12.90;81.70;;;;;;5209410;28;20050;-29
2022/01/24 07:05:39;;;;;;;105.63;68.80;;;13.00;81.60;;;;;;5209659;28;20061;-30
2022/01/24 07:08:10;;;;;;;111.67;70.03;;;13.00;81.60;;;;;;5209640;28;20065;-30
2022/01/24 07:10:41;;;;;;;108.13;71.93;;;13.00;81.80;;;;;;5208085;28;20057;-31
2022/01/24 07:13:12;;;;;;;108.03;72.47;;;13.00;81.80;;;;;;5208226;28;20037;-33
2022/01/24 07:15:48;;;;;;;112.43;74.20;;;13.00;81.70;;;;;;5209321;28;20376;-34
2022/01/24 07:20:57;;;;;;;104.77;74.30;;;13.00;81.90;;;;;;5208904;28;20049;-30
2022/01/24 07:23:28;;;;;;;105.83;74.87;;;13.00;81.80;;;;;;5209104;28;20450;-36
2022/01/24 07:25:59;;;;;;;105.37;73.00;;;13.00;81.90;;;;;;5208888;28;20045;-28
2022/01/24 07:28:31;;;;;;;108.80;73.80;;;13.00;82.00;;;;;;5206801;28;20561;-29
2022/01/24 07:31:03;;;;;;;105.43;72.00;;;13.00;82.00;;;;;;5209546;28;20091;-28
2022/01/24 07:33:33;;;;;;;111.40;72.17;;;13.00;82.00;;;;;;5207726;28;20483;-30
2022/01/24 07:36:05;;;;;;;97.13;69.90;;;13.00;82.10;;;;;;5208553;28;20060;-38
2022/01/24 07:38:35;;;;;;;109.70;73.37;;;13.00;82.10;;;;;;5208747;28;20053;-30
2022/01/24 07:41:07;;;;;;;107.87;75.00;;;13.00;82.20;;;;;;5207237;28;20049;-31
2022/01/24 07:43:38;;;;;;;101.03;71.03;;;13.00;82.30;;;;;;5208474;28;20041;-35
2022/01/24 07:46:09;;;;;;;104.10;72.77;;;13.00;82.40;;;;;;5208417;28;20044;-34
2022/01/24 07:48:40;;;;;;;109.67;76.83;;;12.90;82.30;;;;;;5208538;28;20475;-30
2022/01/24 07:51:12;;;;;;;105.33;72.33;;;13.00;82.50;;;;;;5207544;28;20084;-30
2022/01/24 07:53:43;;;;;;;105.60;73.40;;;12.90;82.50;;;;;;5193655;28;20068;-34
2022/01/24 07:56:14;;;;;;;110.57;73.97;;;12.90;82.50;;;;;;5200111;28;20419;-34
2022/01/24 07:58:45;;;;;;;105.57;74.10;;;12.90;82.60;;;;;;5194617;28;20049;-32
2022/01/24 08:01:16;;;;;;;105.03;72.67;;;13.00;82.70;;;;;;5204734;28;20076;-32
2022/01/24 08:03:47;;;;;;;103.10;71.70;;;13.10;82.40;;;;;;5187892;28;20069;-39
2022/01/24 08:06:18;;;;;;;102.67;70.33;;;13.20;82.10;;;;;;5196283;28;20053;-39
2022/01/24 08:08:50;;;;;;;103.60;72.93;;;13.30;82.00;;;;;;5199886;28;20491;-32
2022/01/24 08:11:22;;;;;;;103.47;72.73;;;13.30;81.90;;;;;;5195777;28;20045;-34
2022/01/24 08:13:54;;;;;;;105.30;78.17;;;13.40;81.90;;;;;;5201954;28;20045;-29
2022/01/24 08:16:25;;;;;;;95.95;68.53;;;13.40;81.80;;;;;;5196397;28;20183;-33
2022/01/24 08:18:58;;;;;;;108.23;72.27;;;13.40;81.80;;;;;;5202082;28;20049;-29
2022/01/24 08:21:29;;;;;;;105.38;74.82;;;13.40;81.90;;;;;;5198134;28;20119;-30
2022/01/24 08:24:02;;;;;;;110.63;79.07;;;13.40;81.90;;;;;;5201786;28;20490;-28
2022/01/24 08:26:33;;;;;;;102.78;75.80;;;13.40;82.00;;;;;;5193998;28;20085;-30
2022/01/24 08:29:05;;;;;;;118.73;83.23;;;13.40;82.00;;;;;;5198395;28;20042;-31
2022/01/24 08:31:36;;;;;;;134.03;96.77;;;13.40;82.20;;;;;;5195292;28;20427;-36
2022/01/24 08:34:07;;;;;;;117.30;81.67;;;13.40;82.20;;;;;;5163324;28;20049;-37
2022/01/24 08:36:38;;;;;;;120.97;89.13;;;13.30;82.30;;;;;;5199422;28;20061;-30
2022/01/24 08:39:09;;;;;;;111.27;78.27;;;13.30;82.40;;;;;;5202328;28;20104;-35
2022/01/24 08:46:55;;;;;;;107.97;74.80;;;13.30;82.80;;;;;;5202872;28;20531;-35
2022/01/24 08:49:26;;;;;;;102.57;69.67;;;13.30;83.00;;;;;;5172467;28;20053;-34
2022/01/24 08:51:59;;;;;;;106.17;72.53;;;13.30;83.00;;;;;;5207533;28;20045;-35
2022/01/24 08:54:30;;;;;;;100.53;72.70;;;13.30;83.00;;;;;;5206598;28;20120;-37
2022/01/24 08:57:02;;;;;;;98.07;69.30;;;13.40;83.00;;;;;;5207084;28;20051;-30
2022/01/24 08:59:33;;;;;;;96.97;67.73;;;13.40;82.80;;;;;;5207155;28;20048;-29
2022/01/24 09:02:04;;;;;;;100.17;67.30;;;13.40;82.80;;;;;;5207451;28;20391;-30
2022/01/24 09:04:36;;;;;;;102.77;68.97;;;13.40;82.90;;;;;;5189286;28;20456;-30
2022/01/24 09:07:07;;;;;;;106.00;72.03;;;13.40;83.00;;;;;;5207186;28;20045;-32
2022/01/24 09:09:39;;;;;;;100.50;66.80;;;13.40;83.20;;;;;;5206957;28;20472;-31
2022/01/24 09:12:12;;;;;;;103.53;69.50;;;13.40;83.10;;;;;;5205468;28;20045;-32
2022/01/24 09:14:43;;;;;;;94.40;65.00;;;13.40;83.30;;;;;;5206131;28;20091;-29
2022/01/24 09:17:15;;;;;;;93.03;65.93;;;13.30;83.20;;;;;;5207259;28;20053;-33
2022/01/24 09:19:46;;;;;;;101.90;70.70;;;13.40;84.00;;;;;;5205707;28;20048;-32
2022/01/24 09:22:17;;;;;;;99.17;69.97;;;13.40;83.90;;;;;;5207146;28;20395;-30
2022/01/24 09:24:48;;;;;;;95.33;65.10;;;13.40;83.70;;;;;;5206135;28;20088;-32
2022/01/24 09:27:19;;;;;;;94.87;64.67;;;13.40;83.60;;;;;;5207307;28;20053;-29
2022/01/24 09:29:50;;;;;;;96.40;65.37;;;13.30;83.60;;;;;;5206499;28;20041;-29
2022/01/24 09:32:21;;;;;;;100.67;69.93;;;13.30;83.70;;;;;;5207483;28;20072;-30
2022/01/24 09:34:52;;;;;;;96.07;66.80;;;13.30;83.80;;;;;;5206199;28;20049;-30
2022/01/24 09:37:24;;;;;;;98.17;66.27;;;13.30;84.00;;;;;;5206767;28;20411;-29
2022/01/24 09:39:55;;;;;;;97.87;66.20;;;13.30;84.10;;;;;;5207099;28;20049;-37
2022/01/24 09:42:26;;;;;;;97.67;66.07;;;13.30;84.20;;;;;;5206593;28;20045;-29
2022/01/24 09:44:57;;;;;;;97.23;65.93;;;13.30;84.20;;;;;;5206473;28;20052;-35
2022/01/24 09:47:28;;;;;;;97.77;68.07;;;13.30;84.50;;;;;;5205679;28;20102;-34
2022/01/24 09:49:59;;;;;;;91.07;63.63;;;13.20;84.40;;;;;;5206811;28;20128;-31
2022/01/24 09:52:31;;;;;;;84.00;58.80;;;13.30;84.50;;;;;;5207150;28;20061;-34
2022/01/24 09:55:02;;;;;;;88.63;59.87;;;13.20;84.50;;;;;;5205907;28;20076;-32
2022/01/24 09:57:33;;;;;;;85.60;57.13;;;13.20;84.50;;;;;;5206900;28;20098;-34
2022/01/24 10:00:06;;;;;;;83.97;59.23;;;13.20;84.60;;;;;;5207015;28;20049;-36
2022/01/24 10:02:37;;;;;;;77.43;56.53;;;13.20;84.70;;;;;;5206754;28;20053;-38
2022/01/24 10:05:19;;;;;;;86.77;58.57;;;13.20;84.80;;;;;;5206635;28;20061;-37
2022/01/24 10:07:52;;;;;;;83.80;56.80;;;13.20;85.00;;;;;;5206179;28;20391;-36
2022/01/24 10:10:27;;;;;;;87.13;57.30;;;13.20;85.40;;;;;;5199233;28;20044;-29
2022/01/24 10:16:28;;;;;;;92.83;61.03;;;13.30;85.00;;;;;;5204133;28;20137;-30
2022/01/24 10:19:00;;;;;;;95.57;66.10;;;13.40;85.00;;;;;;5204537;28;20038;-32
2022/01/24 10:21:42;;;;;;;91.03;60.57;;;13.40;85.20;;;;;;5205007;28;20069;-31
2022/01/24 10:24:30;;;;;;;84.97;58.50;;;13.40;85.30;;;;;;5190730;28;20132;-30
2022/01/24 10:27:23;;;;;;;89.40;62.03;;;13.40;85.50;;;;;;5151419;28;20050;-31
2022/01/24 10:29:55;;;;;;;82.03;57.23;;;13.40;85.60;;;;;;5164763;28;20117;-29
2022/01/24 10:32:29;;;;;;;94.80;62.83;;;13.40;85.50;;;;;;5166952;28;20046;-30
2022/01/24 10:35:25;;;;;;;91.17;59.37;;;13.40;85.50;;;;;;5166873;28;20051;-31
2022/01/24 10:38:18;;;;;;;92.07;62.90;;;13.40;85.40;;;;;;5166966;28;20089;-30
2022/01/24 10:43:40;;;;;;;85.57;57.53;;;13.40;85.50;;;;;;5167206;28;20530;-29
2022/01/24 10:46:11;;;;;;;85.47;57.30;;;13.40;85.30;;;;;;5201071;28;20103;-29
2022/01/24 10:48:44;;;;;;;88.93;58.93;;;13.40;85.30;;;;;;5209702;28;20384;-29
2022/01/24 10:51:19;;;;;;;88.73;58.73;;;13.40;85.50;;;;;;5208264;28;20073;-30
2022/01/24 10:53:52;;;;;;;90.20;61.13;;;13.30;85.40;;;;;;5209625;28;20558;-29
2022/01/24 10:56:43;;;;;;;90.65;62.15;;;13.30;85.60;;;;;;5209327;28;20053;-31
2022/01/24 10:59:22;;;;;;;87.43;60.30;;;13.30;85.80;;;;;;5208515;28;20053;-30
2022/01/24 11:01:54;;;;;;;87.80;62.53;;;13.30;85.90;;;;;;5209182;28;20499;-34
2022/01/24 11:04:26;;;;;;;82.43;56.97;;;13.30;85.90;;;;;;5209935;28;20449;-28
2022/01/24 11:07:03;;;;;;;90.23;61.07;;;13.30;86.10;;;;;;5209367;28;20037;-31
2022/01/24 11:09:42;;;;;;;82.43;57.33;;;13.20;86.20;;;;;;5208279;28;20055;-36
2022/01/24 11:12:15;;;;;;;81.40;54.07;;;13.20;86.20;;;;;;5209326;28;20065;-30
2022/01/24 11:14:46;;;;;;;81.63;57.90;;;13.20;86.20;;;;;;5209419;28;20403;-32
2022/01/24 11:17:23;;;;;;;78.30;54.07;;;13.20;86.10;;;;;;5209300;28;20045;-33
2022/01/24 11:20:01;;;;;;;79.27;55.63;;;13.20;86.20;;;;;;5209271;28;20448;-29
2022/01/24 11:22:40;;;;;;;79.80;54.63;;;13.10;86.10;;;;;;5208722;28;20049;-30
2022/01/24 11:25:13;;;;;;;78.40;53.37;;;13.10;86.20;;;;;;5208499;28;20431;-33
2022/01/24 11:27:47;;;;;;;80.47;58.10;;;13.10;86.10;;;;;;5191361;28;20407;-36
2022/01/24 11:30:29;;;;;;;83.13;56.30;;;13.10;86.20;;;;;;5177491;28;20509;-30
2022/01/24 11:33:07;;;;;;;79.80;54.83;;;13.10;86.30;;;;;;5191518;28;20054;-29
2022/01/24 11:35:45;;;;;;;79.33;55.13;;;13.10;86.50;;;;;;5208904;28;20461;-28
2022/01/24 11:38:28;;;;;;;69.17;50.17;;;13.10;86.70;;;;;;5208695;28;20438;-27
2022/01/24 11:41:00;;;;;;;;;;;13.10;86.60;;;;;;5207773;28;20096;-27
2022/01/24 11:43:43;;;;;;;86.40;57.10;;;13.10;86.70;;;;;;5209221;28;20016;-29
2022/01/24 11:49:52;;;;;;;85.40;55.13;;;13.00;86.70;;;;;;5211862;28;20495;-33
2022/01/24 11:52:33;;;;;;;79.70;53.13;;;13.00;86.70;;;;;;5208654;28;20045;-28
2022/01/24 11:55:20;;;;;;;86.73;56.77;;;13.00;86.60;;;;;;5208866;28;20045;-35
2022/01/24 11:57:51;;;;;;;80.57;53.33;;;13.00;86.50;;;;;;5208488;28;20111;-27
2022/01/24 12:00:27;;;;;;;77.27;51.63;;;13.00;86.50;;;;;;5191036;28;20052;-33
2022/01/24 12:02:59;;;;;;;96.10;63.37;;;13.00;86.40;;;;;;5202483;28;20046;-30
2022/01/24 12:05:45;;;;;;;95.13;67.97;;;13.00;86.20;;;;;;5203893;28;20045;-28
2022/01/24 12:08:36;;;;;;;73.83;51.20;;;12.90;86.20;;;;;;5205979;28;20156;-32
2022/01/24 12:11:22;;;;;;;77.80;51.20;;;12.90;86.30;;;;;;5192720;28;20521;-29
2022/01/24 12:13:56;;;;;;;73.80;49.53;;;12.90;86.30;;;;;;5205960;28;20403;-36
2022/01/24 12:16:36;;;;;;;66.37;45.13;;;12.90;86.20;;;;;;5205894;28;20091;-32
2022/01/24 12:19:08;;;;;;;72.17;47.03;;;12.90;86.20;;;;;;5204672;28;20042;-37
2022/01/24 12:21:41;;;;;;;69.20;43.83;;;12.90;86.10;;;;;;5204731;28;20046;-28
2022/01/24 12:24:13;;;;;;;65.78;43.75;;;12.90;86.10;;;;;;5205619;28;20396;-38
2022/01/24 12:26:46;;;;;;;62.73;43.60;;;12.90;86.30;;;;;;5205589;28;20461;-32
2022/01/24 12:29:19;;;;;;;62.47;44.23;;;12.90;86.40;;;;;;5204071;28;20561;-27
2022/01/24 12:31:52;;;;;;;;;;;12.90;86.50;;;;;;5205070;28;20049;-28
2022/01/24 12:34:33;;;;;;;62.17;42.27;;;12.90;86.50;;;;;;5205543;28;19921;-35
2022/01/24 12:37:10;;;;;;;64.57;43.13;;;12.90;86.50;;;;;;5205339;28;20095;-33
2022/01/24 12:39:46;;;;;;;58.93;39.67;;;12.90;86.30;;;;;;5203853;28;20045;-33
2022/01/24 12:42:32;;;;;;;57.80;39.30;;;12.90;86.20;;;;;;5205593;28;20982;-31
2022/01/24 12:48:12;;;;;;;69.03;49.73;;;12.90;86.00;;;;;;5203972;28;20056;-35
2022/01/24 12:50:44;;;;;;;60.73;43.00;;;12.90;86.50;;;;;;5205083;28;20128;-33
2022/01/24 12:53:17;;;;;;;58.58;42.13;;;12.90;86.00;;;;;;5204009;28;20069;-30
2022/01/24 12:56:02;;;;;;;52.60;38.73;;;12.90;86.10;;;;;;5205001;28;20060;-30
2022/01/24 12:58:42;;;;;;;51.13;35.00;;;12.90;86.00;;;;;;5204843;28;20053;-33
2022/01/24 13:01:24;;;;;;;55.07;36.20;;;12.90;86.00;;;;;;5204071;28;20530;-38
2022/01/24 13:03:58;;;;;;;43.77;31.03;;;12.90;86.30;;;;;;5204801;28;20045;-29
2022/01/24 13:06:31;;;;;;;42.70;29.77;;;12.90;86.20;;;;;;5205213;28;20103;-31
2022/01/24 13:09:16;;;;;;;44.67;31.37;;;12.90;86.30;;;;;;5204839;28;20037;-36
2022/01/24 13:11:57;;;;;;;50.27;33.33;;;12.90;86.60;;;;;;5203856;28;20457;-30
2022/01/24 13:14:49;;;;;;;49.53;32.40;;;12.90;86.60;;;;;;5205110;28;20038;-36
2022/01/24 13:23:09;;;;;;;48.13;34.27;;;12.90;86.80;;;;;;5191851;28;20041;-31
2022/01/24 13:25:41;;;;;;;54.17;37.90;;;12.90;86.90;;;;;;5204753;28;20056;-30
2022/01/24 13:28:13;;;;;;;56.13;36.03;;;12.80;86.80;;;;;;5167103;28;20041;-30
2022/01/24 13:30:46;;;;;;;55.07;36.20;;;12.90;87.10;;;;;;5198806;28;20053;-29
2022/01/24 13:33:22;;;;;;;;;;;12.80;87.10;;;;;;5204134;28;20100;-36
2022/01/24 13:36:05;;;;;;;55.00;35.20;;;12.90;87.20;;;;;;5204466;28;19928;-28
2022/01/24 13:38:47;;;;;;;58.22;38.75;;;12.80;87.30;;;;;;5203762;28;20062;-32
2022/01/24 13:41:20;;;;;;;55.07;35.83;;;12.80;87.30;;;;;;5204811;28;20056;-27
2022/01/24 13:43:52;;;;;;;55.50;36.55;;;12.90;87.50;;;;;;5204684;28;20053;-31
2022/01/24 13:46:25;;;;;;;;;;;12.90;87.60;;;;;;5204934;28;20189;-29
2022/01/24 13:48:56;;;;;;;53.57;34.00;;;12.90;87.60;;;;;;5204646;28;19928;-28
2022/01/24 13:51:37;;;;;;;54.07;35.97;;;12.90;87.70;;;;;;5204526;28;20044;-36
2022/01/24 13:54:12;;;;;;;56.90;38.77;;;12.90;87.70;;;;;;5204685;28;20050;-30
2022/01/24 13:56:50;;;;;;;51.10;35.03;;;12.90;87.70;;;;;;5205519;28;20049;-28
2022/01/24 13:59:23;;;;;;;58.30;37.23;;;12.90;88.20;;;;;;5207232;28;20072;-28
2022/01/24 14:02:09;;;;;;;55.37;38.47;;;12.90;87.70;;;;;;5207199;28;20495;-30
2022/01/24 14:04:52;;;;;;;59.60;40.40;;;13.00;87.80;;;;;;5208431;28;20057;-28
2022/01/24 14:07:41;;;;;;;57.17;38.47;;;12.90;87.80;;;;;;5208202;28;20438;-28
2022/01/24 14:10:13;;;;;;;57.57;37.63;;;12.90;88.00;;;;;;5193421;28;20054;-29
2022/01/24 14:15:52;;;;;;;54.17;36.95;;;12.90;88.20;;;;;;5208317;28;20479;-32
2022/01/24 14:18:28;;;;;;;59.30;41.87;;;12.90;88.10;;;;;;5208226;28;20044;-31
2022/01/24 14:21:10;;;;;;;63.03;44.20;;;12.90;88.30;;;;;;5208089;28;20159;-31
2022/01/24 14:23:43;;;;;;;59.33;41.17;;;12.90;88.30;;;;;;5207949;28;20510;-29
2022/01/24 14:26:24;;;;;;;61.63;41.07;;;12.90;88.40;;;;;;5206600;28;20095;-36
2022/01/24 14:29:14;;;;;;;67.10;42.67;;;12.90;88.30;;;;;;5208162;28;20487;-28
2022/01/24 14:31:47;;;;;;;57.70;39.87;;;12.90;88.20;;;;;;5195158;28;20056;-30
2022/01/24 14:34:18;;;;;;;60.92;42.30;;;12.90;88.20;;;;;;5206363;28;20052;-28
2022/01/24 14:36:56;;;;;;;64.73;43.40;;;12.90;88.10;;;;;;5207940;28;20123;-30
2022/01/24 14:39:27;;;;;;;65.23;45.07;;;12.90;88.20;;;;;;5207768;28;20079;-32
2022/01/24 14:42:06;;;;;;;68.93;46.03;;;12.90;88.20;;;;;;5190050;28;20139;-31
2022/01/24 14:44:53;;;;;;;66.70;44.20;;;12.90;88.10;;;;;;5207451;28;20519;-32
2022/01/24 14:47:24;;;;;;;62.47;41.77;;;12.90;88.20;;;;;;5207884;28;20491;-29
2022/01/24 14:49:55;;;;;;;67.80;44.83;;;12.90;88.20;;;;;;5207495;28;20045;-38
2022/01/24 14:52:34;;;;;;;66.57;46.90;;;12.90;88.10;;;;;;5207793;28;20120;-28
2022/01/24 14:55:05;;;;;;;;;;;11.70;90.00;;;;;;5207699;28;20487;-32
2022/01/24 14:57:36;;;;;;;;;;;10.50;91.80;;;;;;5208203;28;19948;-29
2022/01/24 15:00:07;;;;;;;;;;;9.90;92.90;;;;;;5207545;28;20294;-29
2022/01/24 15:02:38;;;;;;;66.97;43.20;;;9.60;93.60;;;;;;5207662;28;20004;-29
2022/01/24 15:05:11;;;;;;;79.60;48.33;;;9.70;93.80;;;;;;5207288;28;20045;-30
2022/01/24 15:07:42;;;;;;;70.23;42.07;;;10.10;93.30;;;;;;5206241;28;20045;-30
2022/01/24 15:10:14;;;;;;;63.20;40.50;;;10.60;92.80;;;;;;5206512;28;20069;-34
2022/01/24 15:12:52;;;;;;;63.83;41.07;;;11.00;92.20;;;;;;5207111;28;19927;-36
2022/01/24 15:15:24;;;;;;;;;;;11.30;91.70;;;;;;5207511;28;20425;-39